createdAt,value
2018-09-06T00:01:11.210Z,102270.77
2018-09-06T00:03:39.877Z,102263.87
2018-09-06T00:06:08.561Z,102260.24
2018-09-06T00:08:37.352Z,102259.39
2018-09-06T00:11:06.036Z,102260.33
2018-09-06T00:13:34.758Z,102254.22
2018-09-06T00:16:03.431Z,102256.44
2018-09-06T00:18:32.118Z,102259.16
2018-09-06T00:21:00.761Z,102258.05
2018-09-06T00:23:29.516Z,102259.12
2018-09-06T00:25:58.236Z,102253.37
2018-09-06T00:28:26.910Z,102243.60
2018-09-06T00:30:55.623Z,102244.69
2018-09-06T00:33:24.279Z,102244.28
2018-09-06T00:35:52.980Z,102245.73
2018-09-06T00:38:21.692Z,102241.24
2018-09-06T00:40:50.432Z,102237.50
2018-09-06T00:43:19.160Z,102235.95
2018-09-06T00:45:47.879Z,102244.73
2018-09-06T00:48:16.593Z,102236.11
2018-09-06T00:50:45.354Z,102241.84
2018-09-06T00:53:14.096Z,102229.75
2018-09-06T00:55:42.796Z,102221.23
2018-09-06T00:58:11.496Z,102230.89
2018-09-06T01:00:40.252Z,102227.03
2018-09-06T01:03:08.959Z,102223.14
2018-09-06T01:05:37.727Z,102225.91
2018-09-06T01:08:06.460Z,102221.64
2018-09-06T01:10:35.204Z,102219.69
2018-09-06T01:13:03.897Z,102215.34
2018-09-06T01:15:32.619Z,102213.72
2018-09-06T01:18:01.374Z,102213.48
2018-09-06T01:20:30.141Z,102212.38
2018-09-06T01:22:58.793Z,102213.42
2018-09-06T01:25:31.614Z,102216.59
2018-09-06T01:28:00.304Z,102211.02
2018-09-06T01:30:29.058Z,102211.59
2018-09-06T01:32:57.715Z,102213.90
2018-09-06T01:35:26.406Z,102212.27
2018-09-06T01:37:55.124Z,102209.69
2018-09-06T01:40:23.868Z,102206.83
2018-09-06T01:42:52.542Z,102207.86
2018-09-06T01:45:21.234Z,102202.42
2018-09-06T01:47:49.943Z,102206.11
2018-09-06T01:50:18.625Z,102204.02
2018-09-06T01:52:47.368Z,102205.84
2018-09-06T01:55:16.057Z,102194.97
2018-09-06T01:57:44.731Z,102193.66
2018-09-06T02:00:13.407Z,102195.47
2018-09-06T02:02:42.082Z,102197.72
2018-09-06T02:05:10.872Z,102194.31
2018-09-06T02:07:39.558Z,102189.97
2018-09-06T02:10:08.251Z,102187.88
2018-09-06T02:12:36.946Z,102187.88
2018-09-06T02:15:05.651Z,102187.08
2018-09-06T02:17:34.392Z,102175.43
2018-09-06T02:20:03.093Z,102173.26
2018-09-06T02:22:31.805Z,102176.37
2018-09-06T02:25:00.532Z,102183.80
2018-09-06T02:27:29.209Z,102177.32
2018-09-06T02:29:57.897Z,102178.76
2018-09-06T02:32:27.560Z,102185.40
2018-09-06T02:34:56.260Z,102186.76
2018-09-06T02:37:24.948Z,102187.66
2018-09-06T02:39:53.625Z,102187.29
2018-09-06T02:42:22.476Z,102188.15
2018-09-06T02:44:51.195Z,102186.84
2018-09-06T02:47:19.879Z,102185.45
2018-09-06T02:49:53.640Z,102189.78
2018-09-06T02:52:22.440Z,102182.50
2018-09-06T02:54:51.108Z,102182.63
2018-09-06T02:57:19.788Z,102178.31
2018-09-06T02:59:48.459Z,102176.52
2018-09-06T03:02:17.204Z,102175.16
2018-09-06T03:04:45.912Z,102168.06
2018-09-06T03:07:14.580Z,102168.84
2018-09-06T03:09:43.293Z,102164.01
2018-09-06T03:12:12.125Z,102165.72
2018-09-06T03:14:40.847Z,102166.09
2018-09-06T03:17:09.557Z,102163.47
2018-09-06T03:19:38.359Z,102162.11
2018-09-06T03:22:07.020Z,102160.85
2018-09-06T03:24:35.746Z,102158.23
2018-09-06T03:27:04.413Z,102152.94
2018-09-06T03:29:33.088Z,102150.89
2018-09-06T03:32:01.767Z,102143.68
2018-09-06T03:34:30.469Z,102144.05
2018-09-06T03:36:59.195Z,102141.30
2018-09-06T03:39:27.875Z,102142.62
2018-09-06T03:41:56.571Z,102134.87
2018-09-06T03:44:25.245Z,102130.16
2018-09-06T03:46:53.944Z,102128.40
2018-09-06T03:49:22.621Z,102125.45
2018-09-06T03:51:51.378Z,102126.77
2018-09-06T03:54:20.076Z,102127.01
2018-09-06T03:56:48.800Z,102118.15
2018-09-06T03:59:17.482Z,102116.79
2018-09-06T04:01:46.145Z,102114.17
2018-09-06T04:04:14.804Z,102119.86
2018-09-06T04:06:43.491Z,102115.07
2018-09-06T04:09:12.322Z,102107.20
2018-09-06T04:11:41.158Z,102105.97
2018-09-06T04:14:09.885Z,102102.89
2018-09-06T04:16:38.616Z,102098.96
2018-09-06T04:19:07.628Z,102107.20
2018-09-06T04:21:36.346Z,102100.59
2018-09-06T04:24:05.039Z,102096.12
2018-09-06T04:26:33.715Z,102094.73
2018-09-06T04:29:02.420Z,102093.38
2018-09-06T04:31:31.264Z,102093.83
2018-09-06T04:34:00.012Z,102088.66
2018-09-06T04:36:28.732Z,102079.39
2018-09-06T04:38:57.486Z,102072.11
2018-09-06T04:41:26.243Z,102070.56
2018-09-06T04:43:55.031Z,102061.97
2018-09-06T04:46:23.749Z,102051.42
2018-09-06T04:48:52.463Z,102046.77
2018-09-06T04:51:21.200Z,102053.32
2018-09-06T04:53:49.890Z,102052.41
2018-09-06T04:56:18.572Z,102054.23
2018-09-06T04:58:47.361Z,102056.85
2018-09-06T05:01:16.033Z,102061.73
2018-09-06T05:03:44.695Z,102061.86
2018-09-06T05:06:13.567Z,102059.66
2018-09-06T05:08:42.254Z,102065.79
2018-09-06T05:11:11.008Z,102072.45
2018-09-06T05:13:39.720Z,102061.31
2018-09-06T05:16:08.418Z,102071.27
2018-09-06T05:18:37.208Z,102074.42
2018-09-06T05:21:05.967Z,102082.73
2018-09-06T05:23:34.643Z,102085.28
2018-09-06T05:26:03.327Z,102078.73
2018-09-06T05:28:32.005Z,102081.02
2018-09-06T05:31:00.656Z,102087.45
2018-09-06T05:33:29.361Z,102088.72
2018-09-06T05:35:58.715Z,102080.84
2018-09-06T05:38:27.402Z,102082.98
2018-09-06T05:40:56.093Z,102078.59
2018-09-06T05:43:24.856Z,102068.56
2018-09-06T05:45:53.536Z,102074.30
2018-09-06T05:48:22.284Z,102069.82
2018-09-06T05:50:51.018Z,102075.52
2018-09-06T05:53:20.164Z,102075.97
2018-09-06T05:55:48.944Z,102075.44
2018-09-06T05:58:17.669Z,102074.98
2018-09-06T06:00:48.481Z,102077.69
2018-09-06T06:03:17.311Z,102085.16
2018-09-06T06:05:45.984Z,102085.48
2018-09-06T06:08:25.765Z,102081.53
2018-09-06T06:10:54.424Z,102083.16
2018-09-06T06:13:23.222Z,102082.62
2018-09-06T06:15:51.989Z,102089.05
2018-09-06T06:18:20.673Z,102088.65
2018-09-06T06:20:49.405Z,102080.33
2018-09-06T06:23:18.107Z,102082.09
2018-09-06T06:25:46.817Z,102082.95
2018-09-06T06:28:15.852Z,102073.40
2018-09-06T06:30:44.587Z,102066.30
2018-09-06T06:33:13.269Z,102060.12
2018-09-06T06:35:41.965Z,102055.28
2018-09-06T06:38:10.660Z,102057.77
2018-09-06T06:40:39.352Z,102057.18
2018-09-06T06:43:08.085Z,102051.27
2018-09-06T06:45:36.784Z,102052.89
2018-09-06T06:48:05.521Z,102061.55
2018-09-06T06:50:34.276Z,102058.70
2018-09-06T06:53:02.968Z,102062.50
2018-09-06T06:55:31.664Z,102064.98
2018-09-06T06:58:00.340Z,102055.34
2018-09-06T07:00:29.173Z,102056.13
2018-09-06T07:03:06.689Z,102055.12
2018-09-06T07:05:35.380Z,102059.38
2018-09-06T07:08:04.085Z,102061.02
2018-09-06T07:10:32.787Z,102064.50
2018-09-06T07:13:01.480Z,102069.69
2018-09-06T07:15:30.139Z,102071.32
2018-09-06T07:17:58.832Z,102077.30
2018-09-06T07:20:27.472Z,102068.16
2018-09-06T07:22:56.189Z,102070.78
2018-09-06T07:25:24.884Z,102056.75
2018-09-06T07:27:53.531Z,102055.30
2018-09-06T07:30:22.321Z,102051.99
2018-09-06T07:32:51.002Z,102046.97
2018-09-06T07:35:20.931Z,102060.73
2018-09-06T07:37:49.687Z,102046.09
2018-09-06T07:40:18.361Z,102049.03
2018-09-06T07:42:47.103Z,102054.59
2018-09-06T07:45:15.799Z,102044.86
2018-09-06T07:47:44.509Z,102050.69
2018-09-06T07:50:13.700Z,102040.81
2018-09-06T07:52:42.384Z,102048.00
2018-09-06T07:55:11.091Z,102037.75
2018-09-06T07:57:40.558Z,102042.83
2018-09-06T08:00:09.281Z,102042.08
2018-09-06T08:02:38.583Z,102042.02
2018-09-06T08:05:07.364Z,102039.39
2018-09-06T08:07:36.046Z,102038.08
2018-09-06T08:10:04.831Z,102034.84
2018-09-06T08:12:33.511Z,102029.90
2018-09-06T08:15:02.192Z,102022.02
2018-09-06T08:17:30.851Z,102025.50
2018-09-06T08:19:59.587Z,102028.59
2018-09-06T08:22:28.256Z,102021.47
2018-09-06T08:24:56.920Z,102025.52
2018-09-06T08:27:26.235Z,102029.00
2018-09-06T08:29:54.895Z,102020.42
2018-09-06T08:32:23.676Z,102028.83
2018-09-06T08:35:03.175Z,102010.58
2018-09-06T08:37:31.931Z,102022.71
2018-09-06T08:40:00.620Z,102019.38
2018-09-06T08:42:29.413Z,102012.19
2018-09-06T08:44:58.113Z,102016.53
2018-09-06T08:47:26.881Z,102016.53
2018-09-06T08:49:55.495Z,102014.11
2018-09-06T08:52:24.366Z,102029.98
2018-09-06T08:54:53.039Z,102010.70
2018-09-06T08:57:21.876Z,102024.66
2018-09-06T08:59:50.604Z,102020.95
2018-09-06T09:02:19.466Z,102021.88
2018-09-06T09:04:48.047Z,102025.36
2018-09-06T09:07:16.817Z,102026.61
2018-09-06T09:09:45.513Z,102025.50
2018-09-06T09:12:14.249Z,102014.88
2018-09-06T09:14:42.973Z,102014.36
2018-09-06T09:17:11.653Z,102011.27
2018-09-06T09:19:40.412Z,102008.00
2018-09-06T09:22:09.215Z,101997.34
2018-09-06T09:24:37.885Z,102007.86
2018-09-06T09:27:06.980Z,102005.72
2018-09-06T09:29:35.715Z,101998.98
2018-09-06T09:32:04.419Z,102002.22
2018-09-06T09:34:33.156Z,102012.02
2018-09-06T09:37:01.855Z,102006.66
2018-09-06T09:39:30.601Z,102001.80
2018-09-06T09:41:59.327Z,102003.58
2018-09-06T09:44:28.026Z,102008.14
2018-09-06T09:49:24.845Z,102019.38
2018-09-06T09:51:53.580Z,102011.42
2018-09-06T09:54:22.332Z,102011.73
2018-09-06T09:56:51.169Z,102007.84
2018-09-06T09:59:19.831Z,102006.83
2018-09-06T10:01:53.756Z,101999.75
2018-09-06T10:04:27.629Z,102019.24
2018-09-06T10:07:01.387Z,102018.08
2018-09-06T10:09:30.106Z,102009.38
2018-09-06T10:11:58.883Z,101998.48
2018-09-06T10:14:27.640Z,102000.66
2018-09-06T10:16:56.349Z,102009.50
2018-09-06T10:19:25.077Z,102006.33
2018-09-06T10:21:53.787Z,102004.40
2018-09-06T10:24:22.555Z,101995.50
2018-09-06T10:26:51.428Z,101997.92
2018-09-06T10:29:20.291Z,102001.06
2018-09-06T10:31:48.998Z,102001.06
2018-09-06T10:34:17.795Z,102000.91
2018-09-06T10:36:46.541Z,101987.62
2018-09-06T10:39:15.334Z,101988.01
2018-09-06T10:41:44.046Z,101985.58
2018-09-06T10:44:12.797Z,101964.59
2018-09-06T10:46:41.498Z,101966.50
2018-09-06T10:49:10.220Z,101972.78
2018-09-06T10:51:38.898Z,101962.42
2018-09-06T10:54:07.592Z,101975.36
2018-09-06T10:56:36.332Z,101982.39
2018-09-06T10:59:05.058Z,101975.66
2018-09-06T11:01:33.826Z,101979.45
2018-09-06T11:04:02.524Z,101982.14
2018-09-06T11:06:31.214Z,101982.23
2018-09-06T11:08:59.954Z,101988.36
2018-09-06T11:11:28.620Z,101985.79
2018-09-06T11:13:57.306Z,101977.53
2018-09-06T11:16:26.080Z,101974.60
2018-09-06T11:18:54.816Z,101975.31
2018-09-06T11:21:24.292Z,101979.88
2018-09-06T11:23:52.975Z,101973.30
2018-09-06T11:26:22.296Z,101974.30
2018-09-06T11:28:50.977Z,101962.05
2018-09-06T11:31:19.695Z,101973.17
2018-09-06T11:33:48.416Z,101965.68
2018-09-06T11:36:17.088Z,101958.61
2018-09-06T11:38:45.828Z,101958.84
2018-09-06T11:41:14.518Z,101953.62
2018-09-06T11:43:43.326Z,101954.06
2018-09-06T11:46:12.012Z,101956.53
2018-09-06T11:48:40.736Z,101960.91
2018-09-06T11:51:09.800Z,101951.86
2018-09-06T11:53:38.593Z,101955.34
2018-09-06T11:56:07.578Z,101962.03
2018-09-06T11:58:36.993Z,101968.20
2018-09-06T12:01:05.790Z,101954.43
2018-09-06T12:03:34.580Z,101950.61
2018-09-06T12:06:03.301Z,101953.11
2018-09-06T12:08:32.030Z,101947.75
2018-09-06T12:11:00.745Z,101950.12
2018-09-06T12:13:29.443Z,101949.95
2018-09-06T12:15:58.139Z,101938.29
2018-09-06T12:18:27.008Z,101939.29
2018-09-06T12:20:55.752Z,101937.17
2018-09-06T12:23:24.477Z,101939.88
2018-09-06T12:25:53.318Z,101938.27
2018-09-06T12:28:22.427Z,101938.04
2018-09-06T12:30:51.402Z,101947.27
2018-09-06T12:33:21.473Z,101935.41
2018-09-06T12:35:50.678Z,101931.58
2018-09-06T12:38:19.697Z,101930.59
2018-09-06T12:40:48.499Z,101930.72
2018-09-06T12:43:17.788Z,101924.53
2018-09-06T12:45:46.616Z,101921.79
2018-09-06T12:48:15.380Z,101916.41
2018-09-06T12:50:44.180Z,101922.98
2018-09-06T12:53:12.944Z,101917.59
2018-09-06T12:55:41.750Z,101916.45
2018-09-06T12:58:10.563Z,101911.17
2018-09-06T13:00:39.283Z,101912.91
2018-09-06T13:03:08.082Z,101921.16
2018-09-06T13:05:37.005Z,101917.41
2018-09-06T13:08:05.942Z,101909.13
2018-09-06T13:10:34.676Z,101909.52
2018-09-06T13:13:03.440Z,101912.51
2018-09-06T13:15:32.362Z,101898.37
2018-09-06T13:18:01.192Z,101916.52
2018-09-06T13:20:30.020Z,101910.30
2018-09-06T13:22:59.766Z,101909.79
2018-09-06T13:25:28.592Z,101911.67
2018-09-06T13:27:57.409Z,101907.59
2018-09-06T13:30:26.168Z,101903.88
2018-09-06T13:32:54.898Z,101905.20
2018-09-06T13:35:23.792Z,101888.46
2018-09-06T13:37:52.699Z,101897.75
2018-09-06T13:40:21.527Z,101898.64
2018-09-06T13:42:50.223Z,101902.85
2018-09-06T13:45:18.964Z,101896.90
2018-09-06T13:47:47.668Z,101890.88
2018-09-06T13:50:16.342Z,101891.97
2018-09-06T13:52:45.046Z,101892.75
2018-09-06T13:55:13.716Z,101883.75
2018-09-06T13:57:42.412Z,101876.88
2018-09-06T14:00:11.944Z,101877.13
2018-09-06T14:02:41.511Z,101872.20
2018-09-06T14:05:10.396Z,101872.37
2018-09-06T14:07:39.076Z,101880.22
2018-09-06T14:10:07.856Z,101868.95
2018-09-06T14:12:36.525Z,101860.10
2018-09-06T14:15:05.296Z,101846.59
2018-09-06T14:17:34.006Z,101844.55
2018-09-06T14:20:02.697Z,101845.77
2018-09-06T14:22:31.446Z,101841.20
2018-09-06T14:25:00.139Z,101836.09
2018-09-06T14:27:28.828Z,101833.42
2018-09-06T14:29:57.529Z,101839.33
2018-09-06T14:32:26.199Z,101827.72
2018-09-06T14:34:54.919Z,101825.70
2018-09-06T14:37:23.605Z,101820.66
2018-09-06T14:39:52.277Z,101817.86
2018-09-06T14:42:21.011Z,101812.81
2018-09-06T14:44:49.783Z,101816.02
2018-09-06T14:47:18.467Z,101812.85
2018-09-06T14:49:47.220Z,101813.39
2018-09-06T14:52:16.084Z,101807.84
2018-09-06T14:54:44.799Z,101809.05
2018-09-06T14:57:13.643Z,101806.48
2018-09-06T14:59:42.463Z,101817.98
2018-09-06T15:02:11.348Z,101798.30
2018-09-06T15:04:40.147Z,101804.23
2018-09-06T15:07:08.849Z,101800.46
2018-09-06T15:09:38.480Z,101802.03
2018-09-06T15:12:07.573Z,101794.12
2018-09-06T15:14:36.268Z,101796.19
2018-09-06T15:17:05.168Z,101792.34
2018-09-06T15:19:33.982Z,101796.00
2018-09-06T15:22:02.743Z,101780.09
2018-09-06T15:24:31.475Z,101785.64
2018-09-06T15:27:00.275Z,101788.74
2018-09-06T15:29:28.995Z,101775.93
2018-09-06T15:31:58.035Z,101773.41
2018-09-06T15:34:26.769Z,101774.33
2018-09-06T15:36:55.554Z,101775.95
2018-09-06T15:39:24.387Z,101785.13
2018-09-06T15:41:53.146Z,101777.23
2018-09-06T15:44:22.601Z,101776.77
2018-09-06T15:46:51.408Z,101779.41
2018-09-06T15:49:22.148Z,101781.08
2018-09-06T15:51:50.910Z,101771.69
2018-09-06T15:54:19.593Z,101774.16
2018-09-06T15:56:48.277Z,101775.47
2018-09-06T15:59:17.017Z,101779.52
2018-09-06T16:01:45.841Z,101778.59
2018-09-06T16:04:14.730Z,101767.94
2018-09-06T16:06:43.480Z,101763.29
2018-09-06T16:09:12.181Z,101771.16
2018-09-06T16:11:40.865Z,101763.22
2018-09-06T16:14:09.735Z,101761.88
2018-09-06T16:16:38.589Z,101759.25
2018-09-06T16:19:07.279Z,101751.42
2018-09-06T16:21:35.977Z,101747.19
2018-09-06T16:24:04.849Z,101741.64
2018-09-06T16:26:33.608Z,101722.75
2018-09-06T16:29:02.313Z,101739.56
2018-09-06T16:31:31.261Z,101744.08
2018-09-06T16:33:59.951Z,101736.81
2018-09-06T16:36:28.659Z,101729.95
2018-09-06T16:38:57.390Z,101731.33
2018-09-06T16:41:26.128Z,101732.64
2018-09-06T16:43:54.847Z,101737.15
2018-09-06T16:46:23.639Z,101734.16
2018-09-06T16:48:52.656Z,101722.95
2018-09-06T16:51:21.431Z,101721.94
2018-09-06T16:53:50.160Z,101722.40
2018-09-06T16:56:19.630Z,101717.60
2018-09-06T16:58:48.393Z,101717.14
2018-09-06T17:01:17.310Z,101728.28
2018-09-06T17:03:46.237Z,101733.67
2018-09-06T17:06:14.957Z,101732.33
2018-09-06T17:08:43.828Z,101726.94
2018-09-06T17:11:12.708Z,101721.45
2018-09-06T17:13:41.557Z,101722.47
2018-09-06T17:16:10.364Z,101723.78
2018-09-06T17:18:39.217Z,101723.78
2018-09-06T17:21:08.071Z,101726.81
2018-09-06T17:23:36.961Z,101723.23
2018-09-06T17:26:05.770Z,101723.45
2018-09-06T17:28:34.525Z,101722.14
2018-09-06T17:31:03.320Z,101717.28
2018-09-06T17:33:32.292Z,101717.19
2018-09-06T17:36:01.116Z,101720.56
2018-09-06T17:38:29.972Z,101716.16
2018-09-06T17:40:58.775Z,101715.25
2018-09-06T17:43:27.465Z,101725.76
2018-09-06T17:45:56.252Z,101733.18
2018-09-06T17:48:25.045Z,101736.04
2018-09-06T17:50:53.969Z,101734.06
2018-09-06T17:53:22.876Z,101732.06
2018-09-06T17:55:51.722Z,101735.25
2018-09-06T17:58:20.555Z,101732.78
2018-09-06T18:01:52.208Z,101730.28
2018-09-06T18:04:20.923Z,101739.18
2018-09-06T18:06:50.005Z,101736.26
2018-09-06T18:09:18.986Z,101733.23
2018-09-06T18:11:47.902Z,101735.96
2018-09-06T18:14:16.749Z,101728.90
2018-09-06T18:16:45.695Z,101725.81
2018-09-06T18:19:14.631Z,101731.06
2018-09-06T18:21:43.425Z,101732.48
2018-09-06T18:24:12.537Z,101732.48
2018-09-06T18:26:41.407Z,101730.77
2018-09-06T18:29:10.153Z,101740.81
2018-09-06T18:31:38.893Z,101741.73
2018-09-06T18:34:07.765Z,101738.65
2018-09-06T18:36:36.632Z,101739.66
2018-09-06T18:39:07.026Z,101752.34
2018-09-06T18:41:35.899Z,101746.69
2018-09-06T18:44:04.882Z,101750.17
2018-09-06T18:46:33.536Z,101754.20
2018-09-06T18:49:02.268Z,101760.38
2018-09-06T18:51:30.981Z,101756.99
2018-09-06T18:53:59.742Z,101764.94
2018-09-06T18:56:28.508Z,101764.08
2018-09-06T18:58:57.219Z,101765.79
2018-09-06T19:01:25.887Z,101763.56
2018-09-06T19:03:54.539Z,101763.09
2018-09-06T19:06:23.299Z,101767.03
2018-09-06T19:08:51.976Z,101764.47
2018-09-06T19:11:21.129Z,101767.66
2018-09-06T19:13:49.873Z,101766.80
2018-09-06T19:16:18.653Z,101766.05
2018-09-06T19:18:47.313Z,101780.48
2018-09-06T19:21:16.009Z,101776.25
2018-09-06T19:23:44.679Z,101787.36
2018-09-06T19:26:13.413Z,101795.24
2018-09-06T19:28:42.062Z,101796.25
2018-09-06T19:31:10.805Z,101797.16
2018-09-06T19:33:39.504Z,101807.37
2018-09-06T19:36:08.326Z,101805.75
2018-09-06T19:38:36.977Z,101814.58
2018-09-06T19:41:05.751Z,101815.64
2018-09-06T19:43:34.429Z,101815.25
2018-09-06T19:46:03.125Z,101818.02
2018-09-06T19:48:31.807Z,101822.51
2018-09-06T19:51:00.521Z,101818.20
2018-09-06T19:53:29.265Z,101825.28
2018-09-06T19:55:57.961Z,101829.01
2018-09-06T19:58:26.612Z,101830.78
2018-09-06T20:00:55.287Z,101830.92
2018-09-06T20:03:24.049Z,101827.99
2018-09-06T20:05:52.735Z,101829.00
2018-09-06T20:08:21.563Z,101836.96
2018-09-06T20:10:50.253Z,101833.03
2018-09-06T20:13:19.020Z,101835.70
2018-09-06T20:15:47.840Z,101838.88
2018-09-06T20:18:16.542Z,101833.32
2018-09-06T20:20:45.240Z,101832.16
2018-09-06T20:23:13.888Z,101839.27
2018-09-06T20:25:42.669Z,101843.34
2018-09-06T20:28:11.420Z,101840.02
2018-09-06T20:30:40.024Z,101843.23
2018-09-06T20:33:08.720Z,101836.31
2018-09-06T20:35:37.384Z,101838.13
2018-09-06T20:38:06.079Z,101839.08
2018-09-06T20:40:34.759Z,101839.99
2018-09-06T20:43:03.653Z,101839.68
2018-09-06T20:45:32.365Z,101840.14
2018-09-06T20:48:01.069Z,101843.30
2018-09-06T20:50:29.769Z,101842.91
2018-09-06T20:52:58.469Z,101850.77
2018-09-06T20:55:27.159Z,101847.47
2018-09-06T20:57:55.831Z,101851.45
2018-09-06T21:00:24.495Z,101850.69
2018-09-06T21:02:53.486Z,101852.91
2018-09-06T21:05:22.344Z,101854.22
2018-09-06T21:07:51.084Z,101848.98
2018-09-06T21:10:19.818Z,101848.16
2018-09-06T21:12:48.511Z,101846.84
2018-09-06T21:15:17.200Z,101851.23
2018-09-06T21:17:45.906Z,101849.52
2018-09-06T21:20:14.599Z,101845.22
2018-09-06T21:22:43.292Z,101847.36
2018-09-06T21:25:11.984Z,101851.29
2018-09-06T21:27:40.696Z,101860.02
2018-09-06T21:30:09.441Z,101858.70
2018-09-06T21:32:38.071Z,101860.02
2018-09-06T21:35:06.925Z,101864.03
2018-09-06T21:37:36.105Z,101857.48
2018-09-06T21:40:05.083Z,101854.55
2018-09-06T21:42:33.759Z,101854.69
2018-09-06T21:45:02.468Z,101856.10
2018-09-06T21:47:31.148Z,101855.33
2018-09-06T21:49:59.802Z,101854.53
2018-09-06T21:52:28.475Z,101850.28
2018-09-06T21:54:57.169Z,101851.81
2018-09-06T21:57:25.883Z,101859.23
2018-09-06T21:59:54.592Z,101855.03
2018-09-06T22:02:28.518Z,101853.49
2018-09-06T22:04:57.238Z,101859.73
2018-09-06T22:07:26.723Z,101848.53
2018-09-06T22:09:55.621Z,101849.98
2018-09-06T22:12:24.476Z,101853.59
2018-09-06T22:14:53.280Z,101857.20
2018-09-06T22:17:22.160Z,101850.79
2018-09-06T22:19:51.513Z,101855.17
2018-09-06T22:22:20.377Z,101857.93
2018-09-06T22:24:49.924Z,101854.48
2018-09-06T22:27:19.380Z,101848.89
2018-09-06T22:29:48.516Z,101851.20
2018-09-06T22:32:17.367Z,101855.66
2018-09-06T22:34:48.187Z,101857.51
2018-09-06T22:37:16.889Z,101848.88
2018-09-06T22:39:45.531Z,101860.34
2018-09-06T22:42:14.252Z,101851.77
2018-09-06T22:44:43.023Z,101856.69
2018-09-06T22:47:11.759Z,101863.28
2018-09-06T22:49:40.524Z,101859.11
2018-09-06T22:52:09.415Z,101860.56
2018-09-06T22:54:38.071Z,101862.86
2018-09-06T22:57:07.515Z,101854.41
2018-09-06T22:59:36.202Z,101856.57
2018-09-06T23:02:04.872Z,101856.70
2018-09-06T23:04:33.615Z,101853.84
2018-09-06T23:07:02.395Z,101850.95
2018-09-06T23:09:31.195Z,101852.79
2018-09-06T23:12:00.579Z,101857.75
2018-09-06T23:14:29.451Z,101854.44
2018-09-06T23:16:58.616Z,101851.09
2018-09-06T23:19:27.432Z,101857.31
2018-09-06T23:21:56.219Z,101850.16
2018-09-06T23:24:25.511Z,101852.86
2018-09-06T23:26:54.187Z,101859.98
2018-09-06T23:29:23.755Z,101861.83
2018-09-06T23:31:53.118Z,101850.58
2018-09-06T23:34:22.410Z,101851.98
2018-09-06T23:36:51.187Z,101845.56
2018-09-06T23:39:20.011Z,101846.22
2018-09-06T23:41:49.613Z,101843.19
2018-09-06T23:44:18.427Z,101838.28
2018-09-06T23:46:47.900Z,101851.77
2018-09-06T23:49:16.830Z,101855.02
2018-09-06T23:51:45.521Z,101854.76
2018-09-06T23:54:16.109Z,101854.14
2018-09-06T23:56:45.401Z,101852.70
2018-09-06T23:59:14.145Z,101851.19
